sensor_id;sensor_type;location;lat;lon;timestamp;P1;durP1;ratioP1;P2;durP2;ratioP2
1106;SDS011;540;49.448;8.612;2023-04-25T00:00:21;4.18;;;2.30;;
1106;SDS011;540;49.448;8.612;2023-04-25T00:02:49;4.32;;;2.67;;
1106;SDS011;540;49.448;8.612;2023-04-25T00:05:17;3.95;;;2.25;;
1106;SDS011;540;49.448;8.612;2023-04-25T00:07:47;4.40;;;2.30;;
1106;SDS011;540;49.448;8.612;2023-04-25T00:10:15;3.88;;;2.70;;
1106;SDS011;540;49.448;8.612;2023-04-25T00:12:43;3.47;;;2.30;;
1106;SDS011;540;49.448;8.612;2023-04-25T00:15:11;4.53;;;2.05;;
1106;SDS011;540;49.448;8.612;2023-04-25T00:17:39;3.63;;;2.40;;
1106;SDS011;540;49.448;8.612;2023-04-25T00:20:07;3.65;;;2.28;;
1106;SDS011;540;49.448;8.612;2023-04-25T00:22:36;3.47;;;2.55;;
1106;SDS011;540;49.448;8.612;2023-04-25T00:25:06;4.00;;;2.60;;
1106;SDS011;540;49.448;8.612;2023-04-25T00:27:34;3.65;;;2.20;;
1106;SDS011;540;49.448;8.612;2023-04-25T00:30:03;3.72;;;2.45;;
1106;SDS011;540;49.448;8.612;2023-04-25T00:32:31;3.60;;;2.42;;
1106;SDS011;540;49.448;8.612;2023-04-25T00:34:59;3.90;;;2.55;;
1106;SDS011;540;49.448;8.612;2023-04-25T00:37:27;3.90;;;2.80;;
1106;SDS011;540;49.448;8.612;2023-04-25T00:39:55;3.65;;;2.70;;
1106;SDS011;540;49.448;8.612;2023-04-25T00:42:26;3.70;;;2.40;;
1106;SDS011;540;49.448;8.612;2023-04-25T00:44:54;3.78;;;2.70;;
1106;SDS011;540;49.448;8.612;2023-04-25T00:47:22;3.97;;;2.50;;
1106;SDS011;540;49.448;8.612;2023-04-25T00:49:50;4.05;;;2.42;;
1106;SDS011;540;49.448;8.612;2023-04-25T00:52:19;5.30;;;2.75;;
1106;SDS011;540;49.448;8.612;2023-04-25T00:54:47;3.08;;;2.50;;
1106;SDS011;540;49.448;8.612;2023-04-25T00:57:15;4.38;;;3.10;;
1106;SDS011;540;49.448;8.612;2023-04-25T00:59:45;4.38;;;3.10;;
1106;SDS011;540;49.448;8.612;2023-04-25T01:02:13;3.53;;;2.45;;
1106;SDS011;540;49.448;8.612;2023-04-25T01:04:41;4.28;;;3.25;;
1106;SDS011;540;49.448;8.612;2023-04-25T01:07:09;4.53;;;3.22;;
1106;SDS011;540;49.448;8.612;2023-04-25T01:09:37;4.00;;;3.03;;
1106;SDS011;540;49.448;8.612;2023-04-25T01:12:05;4.07;;;2.85;;
1106;SDS011;540;49.448;8.612;2023-04-25T01:14:33;3.85;;;2.70;;
1106;SDS011;540;49.448;8.612;2023-04-25T01:17:02;4.18;;;2.97;;
1106;SDS011;540;49.448;8.612;2023-04-25T01:19:30;6.07;;;3.72;;
1106;SDS011;540;49.448;8.612;2023-04-25T01:21:59;4.82;;;2.95;;
1106;SDS011;540;49.448;8.612;2023-04-25T01:24:27;5.38;;;2.83;;
1106;SDS011;540;49.448;8.612;2023-04-25T01:26:55;8.57;;;3.55;;
1106;SDS011;540;49.448;8.612;2023-04-25T01:29:23;6.72;;;3.58;;
1106;SDS011;540;49.448;8.612;2023-04-25T01:31:52;7.38;;;4.00;;
1106;SDS011;540;49.448;8.612;2023-04-25T01:34:20;8.35;;;3.85;;
1106;SDS011;540;49.448;8.612;2023-04-25T01:36:49;5.70;;;3.75;;
1106;SDS011;540;49.448;8.612;2023-04-25T01:39:18;5.78;;;3.63;;
1106;SDS011;540;49.448;8.612;2023-04-25T01:41:47;6.82;;;4.03;;
1106;SDS011;540;49.448;8.612;2023-04-25T01:44:15;5.93;;;3.67;;
1106;SDS011;540;49.448;8.612;2023-04-25T01:46:43;4.50;;;3.40;;
1106;SDS011;540;49.448;8.612;2023-04-25T01:49:11;5.22;;;3.78;;
1106;SDS011;540;49.448;8.612;2023-04-25T01:51:39;6.10;;;3.88;;
1106;SDS011;540;49.448;8.612;2023-04-25T01:54:07;7.10;;;4.30;;
1106;SDS011;540;49.448;8.612;2023-04-25T01:56:38;6.50;;;4.20;;
1106;SDS011;540;49.448;8.612;2023-04-25T01:59:06;7.82;;;5.07;;
1106;SDS011;540;49.448;8.612;2023-04-25T02:01:34;11.77;;;5.15;;
1106;SDS011;540;49.448;8.612;2023-04-25T02:04:02;9.90;;;5.07;;
1106;SDS011;540;49.448;8.612;2023-04-25T02:06:30;7.07;;;4.55;;
1106;SDS011;540;49.448;8.612;2023-04-25T02:08:58;7.38;;;4.65;;
1106;SDS011;540;49.448;8.612;2023-04-25T02:11:26;8.75;;;5.05;;
1106;SDS011;540;49.448;8.612;2023-04-25T02:13:55;7.68;;;4.82;;
1106;SDS011;540;49.448;8.612;2023-04-25T02:16:23;7.95;;;4.53;;
1106;SDS011;540;49.448;8.612;2023-04-25T02:18:51;8.00;;;5.55;;
1106;SDS011;540;49.448;8.612;2023-04-25T02:21:19;11.05;;;4.85;;
1106;SDS011;540;49.448;8.612;2023-04-25T02:23:47;9.20;;;5.57;;
1106;SDS011;540;49.448;8.612;2023-04-25T02:26:18;10.40;;;6.28;;
1106;SDS011;540;49.448;8.612;2023-04-25T02:28:47;6.72;;;5.22;;
1106;SDS011;540;49.448;8.612;2023-04-25T02:31:16;9.70;;;5.25;;
1106;SDS011;540;49.448;8.612;2023-04-25T02:33:44;8.88;;;5.13;;
1106;SDS011;540;49.448;8.612;2023-04-25T02:36:12;9.63;;;6.03;;
1106;SDS011;540;49.448;8.612;2023-04-25T02:38:40;11.00;;;6.60;;
1106;SDS011;540;49.448;8.612;2023-04-25T02:41:07;9.50;;;5.90;;
1106;SDS011;540;49.448;8.612;2023-04-25T02:43:35;9.40;;;5.60;;
1106;SDS011;540;49.448;8.612;2023-04-25T02:46:03;10.05;;;6.03;;
1106;SDS011;540;49.448;8.612;2023-04-25T02:48:33;9.55;;;5.68;;
1106;SDS011;540;49.448;8.612;2023-04-25T02:51:00;9.65;;;6.38;;
1106;SDS011;540;49.448;8.612;2023-04-25T02:53:28;10.73;;;7.05;;
1106;SDS011;540;49.448;8.612;2023-04-25T02:55:56;10.13;;;6.30;;
1106;SDS011;540;49.448;8.612;2023-04-25T02:58:25;8.48;;;5.63;;
1106;SDS011;540;49.448;8.612;2023-04-25T03:00:53;10.50;;;6.22;;
1106;SDS011;540;49.448;8.612;2023-04-25T03:03:21;11.25;;;6.95;;
1106;SDS011;540;49.448;8.612;2023-04-25T03:05:50;10.55;;;6.32;;
1106;SDS011;540;49.448;8.612;2023-04-25T03:08:18;12.30;;;7.22;;
1106;SDS011;540;49.448;8.612;2023-04-25T03:10:46;12.00;;;7.32;;
1106;SDS011;540;49.448;8.612;2023-04-25T03:13:16;11.82;;;6.97;;
1106;SDS011;540;49.448;8.612;2023-04-25T03:15:43;13.57;;;7.68;;
1106;SDS011;540;49.448;8.612;2023-04-25T03:18:11;12.73;;;7.90;;
1106;SDS011;540;49.448;8.612;2023-04-25T03:20:39;12.23;;;6.80;;
1106;SDS011;540;49.448;8.612;2023-04-25T03:23:09;15.13;;;7.15;;
1106;SDS011;540;49.448;8.612;2023-04-25T03:25:37;13.02;;;7.03;;
1106;SDS011;540;49.448;8.612;2023-04-25T03:28:04;10.07;;;6.78;;
1106;SDS011;540;49.448;8.612;2023-04-25T03:30:32;11.02;;;7.38;;
1106;SDS011;540;49.448;8.612;2023-04-25T03:33:00;9.93;;;6.53;;
1106;SDS011;540;49.448;8.612;2023-04-25T03:35:28;13.80;;;8.02;;
1106;SDS011;540;49.448;8.612;2023-04-25T03:37:56;10.98;;;6.93;;
1106;SDS011;540;49.448;8.612;2023-04-25T03:40:25;11.02;;;7.38;;
1106;SDS011;540;49.448;8.612;2023-04-25T03:42:53;10.55;;;6.65;;
1106;SDS011;540;49.448;8.612;2023-04-25T03:45:20;9.93;;;6.07;;
1106;SDS011;540;49.448;8.612;2023-04-25T03:47:48;12.85;;;6.80;;
1106;SDS011;540;49.448;8.612;2023-04-25T03:50:16;13.70;;;7.40;;
1106;SDS011;540;49.448;8.612;2023-04-25T03:52:44;11.40;;;6.78;;
1106;SDS011;540;49.448;8.612;2023-04-25T03:55:12;9.13;;;6.30;;
1106;SDS011;540;49.448;8.612;2023-04-25T03:57:41;9.65;;;6.40;;
1106;SDS011;540;49.448;8.612;2023-04-25T04:00:09;13.43;;;6.88;;
1106;SDS011;540;49.448;8.612;2023-04-25T04:02:38;10.32;;;6.78;;
1106;SDS011;540;49.448;8.612;2023-04-25T04:05:09;10.30;;;6.95;;
1106;SDS011;540;49.448;8.612;2023-04-25T04:07:38;11.27;;;6.35;;
1106;SDS011;540;49.448;8.612;2023-04-25T04:10:09;10.63;;;6.35;;
1106;SDS011;540;49.448;8.612;2023-04-25T04:12:37;14.70;;;6.90;;
1106;SDS011;540;49.448;8.612;2023-04-25T04:15:07;11.63;;;7.13;;
1106;SDS011;540;49.448;8.612;2023-04-25T04:17:36;10.43;;;6.63;;
1106;SDS011;540;49.448;8.612;2023-04-25T04:20:05;11.60;;;6.82;;
1106;SDS011;540;49.448;8.612;2023-04-25T04:22:34;10.30;;;6.43;;
1106;SDS011;540;49.448;8.612;2023-04-25T04:25:02;12.18;;;7.07;;
1106;SDS011;540;49.448;8.612;2023-04-25T04:27:31;9.98;;;6.40;;
1106;SDS011;540;49.448;8.612;2023-04-25T04:30:00;11.27;;;6.90;;
1106;SDS011;540;49.448;8.612;2023-04-25T04:32:30;12.10;;;6.95;;
1106;SDS011;540;49.448;8.612;2023-04-25T04:34:59;13.95;;;7.38;;
1106;SDS011;540;49.448;8.612;2023-04-25T04:37:27;10.80;;;6.95;;
1106;SDS011;540;49.448;8.612;2023-04-25T04:39:55;11.77;;;7.85;;
1106;SDS011;540;49.448;8.612;2023-04-25T04:42:23;11.80;;;7.38;;
1106;SDS011;540;49.448;8.612;2023-04-25T04:44:51;12.13;;;6.90;;
1106;SDS011;540;49.448;8.612;2023-04-25T04:47:21;11.95;;;7.82;;
1106;SDS011;540;49.448;8.612;2023-04-25T04:49:51;12.75;;;7.25;;
1106;SDS011;540;49.448;8.612;2023-04-25T04:52:19;11.27;;;7.10;;
1106;SDS011;540;49.448;8.612;2023-04-25T04:54:46;14.18;;;7.07;;
1106;SDS011;540;49.448;8.612;2023-04-25T04:57:14;11.30;;;7.07;;
1106;SDS011;540;49.448;8.612;2023-04-25T04:59:42;14.63;;;7.25;;
1106;SDS011;540;49.448;8.612;2023-04-25T05:02:10;11.60;;;7.43;;
1106;SDS011;540;49.448;8.612;2023-04-25T05:04:38;14.57;;;7.72;;
1106;SDS011;540;49.448;8.612;2023-04-25T05:07:07;12.48;;;7.63;;
1106;SDS011;540;49.448;8.612;2023-04-25T05:09:36;11.98;;;7.22;;
1106;SDS011;540;49.448;8.612;2023-04-25T05:12:04;13.02;;;7.63;;
1106;SDS011;540;49.448;8.612;2023-04-25T05:14:32;17.27;;;9.82;;
1106;SDS011;540;49.448;8.612;2023-04-25T05:17:00;13.25;;;7.43;;
1106;SDS011;540;49.448;8.612;2023-04-25T05:19:31;15.45;;;8.68;;
1106;SDS011;540;49.448;8.612;2023-04-25T05:21:59;11.10;;;7.47;;
1106;SDS011;540;49.448;8.612;2023-04-25T05:24:28;11.45;;;6.60;;
1106;SDS011;540;49.448;8.612;2023-04-25T05:26:56;13.15;;;7.68;;
1106;SDS011;540;49.448;8.612;2023-04-25T05:29:24;11.18;;;6.88;;
1106;SDS011;540;49.448;8.612;2023-04-25T05:31:52;11.73;;;7.53;;
1106;SDS011;540;49.448;8.612;2023-04-25T05:34:20;11.90;;;7.70;;
1106;SDS011;540;49.448;8.612;2023-04-25T05:36:48;13.13;;;7.70;;
1106;SDS011;540;49.448;8.612;2023-04-25T05:39:16;14.88;;;8.63;;
1106;SDS011;540;49.448;8.612;2023-04-25T05:41:45;17.98;;;10.57;;
1106;SDS011;540;49.448;8.612;2023-04-25T05:44:13;15.30;;;9.45;;
1106;SDS011;540;49.448;8.612;2023-04-25T05:46:42;13.27;;;7.40;;
1106;SDS011;540;49.448;8.612;2023-04-25T05:49:09;12.23;;;7.90;;
1106;SDS011;540;49.448;8.612;2023-04-25T05:51:37;10.95;;;8.00;;
1106;SDS011;540;49.448;8.612;2023-04-25T05:54:05;11.65;;;7.25;;
1106;SDS011;540;49.448;8.612;2023-04-25T05:56:33;12.15;;;7.88;;
1106;SDS011;540;49.448;8.612;2023-04-25T05:59:02;12.80;;;7.40;;
1106;SDS011;540;49.448;8.612;2023-04-25T06:01:30;11.63;;;7.40;;
1106;SDS011;540;49.448;8.612;2023-04-25T06:03:57;15.18;;;7.93;;
1106;SDS011;540;49.448;8.612;2023-04-25T06:06:26;14.27;;;8.52;;
1106;SDS011;540;49.448;8.612;2023-04-25T06:08:54;14.20;;;7.95;;
1106;SDS011;540;49.448;8.612;2023-04-25T06:11:21;11.75;;;7.30;;
1106;SDS011;540;49.448;8.612;2023-04-25T06:13:49;15.25;;;8.55;;
1106;SDS011;540;49.448;8.612;2023-04-25T06:16:19;11.98;;;7.40;;
1106;SDS011;540;49.448;8.612;2023-04-25T06:18:47;13.05;;;8.15;;
1106;SDS011;540;49.448;8.612;2023-04-25T06:21:14;14.55;;;7.95;;
1106;SDS011;540;49.448;8.612;2023-04-25T06:23:43;13.90;;;8.82;;
1106;SDS011;540;49.448;8.612;2023-04-25T06:26:10;12.88;;;8.50;;
1106;SDS011;540;49.448;8.612;2023-04-25T06:28:38;20.33;;;8.85;;
1106;SDS011;540;49.448;8.612;2023-04-25T06:31:06;14.32;;;8.20;;
1106;SDS011;540;49.448;8.612;2023-04-25T06:33:35;13.93;;;8.77;;
1106;SDS011;540;49.448;8.612;2023-04-25T06:36:03;13.02;;;8.93;;
1106;SDS011;540;49.448;8.612;2023-04-25T06:38:31;14.02;;;8.52;;
1106;SDS011;540;49.448;8.612;2023-04-25T06:41:00;11.52;;;8.25;;
1106;SDS011;540;49.448;8.612;2023-04-25T06:43:28;10.50;;;7.40;;
1106;SDS011;540;49.448;8.612;2023-04-25T06:45:59;14.00;;;7.95;;
1106;SDS011;540;49.448;8.612;2023-04-25T06:48:27;12.30;;;7.65;;
1106;SDS011;540;49.448;8.612;2023-04-25T06:50:56;14.60;;;8.20;;
1106;SDS011;540;49.448;8.612;2023-04-25T06:53:24;14.73;;;8.45;;
1106;SDS011;540;49.448;8.612;2023-04-25T06:55:51;18.65;;;10.13;;
1106;SDS011;540;49.448;8.612;2023-04-25T06:58:19;16.55;;;7.60;;
1106;SDS011;540;49.448;8.612;2023-04-25T07:00:47;18.25;;;7.55;;
1106;SDS011;540;49.448;8.612;2023-04-25T07:03:15;18.65;;;8.18;;
1106;SDS011;540;49.448;8.612;2023-04-25T07:05:43;12.68;;;7.57;;
1106;SDS011;540;49.448;8.612;2023-04-25T07:08:13;13.30;;;6.03;;
1106;SDS011;540;49.448;8.612;2023-04-25T07:10:41;11.93;;;6.18;;
1106;SDS011;540;49.448;8.612;2023-04-25T07:13:08;11.57;;;5.95;;
1106;SDS011;540;49.448;8.612;2023-04-25T07:15:36;18.42;;;6.85;;
1106;SDS011;540;49.448;8.612;2023-04-25T07:18:04;13.15;;;6.20;;
1106;SDS011;540;49.448;8.612;2023-04-25T07:20:32;12.73;;;6.35;;
1106;SDS011;540;49.448;8.612;2023-04-25T07:22:59;14.50;;;5.78;;
1106;SDS011;540;49.448;8.612;2023-04-25T07:25:29;11.77;;;5.78;;
1106;SDS011;540;49.448;8.612;2023-04-25T07:27:57;14.82;;;6.13;;
1106;SDS011;540;49.448;8.612;2023-04-25T07:30:25;15.18;;;5.82;;
1106;SDS011;540;49.448;8.612;2023-04-25T07:32:53;14.13;;;6.13;;
1106;SDS011;540;49.448;8.612;2023-04-25T07:35:21;12.48;;;5.82;;
1106;SDS011;540;49.448;8.612;2023-04-25T07:37:49;14.55;;;6.97;;
1106;SDS011;540;49.448;8.612;2023-04-25T07:40:17;11.20;;;5.43;;
1106;SDS011;540;49.448;8.612;2023-04-25T07:42:46;16.58;;;6.35;;
1106;SDS011;540;49.448;8.612;2023-04-25T07:45:14;13.73;;;6.40;;
1106;SDS011;540;49.448;8.612;2023-04-25T07:47:42;15.45;;;6.75;;
1106;SDS011;540;49.448;8.612;2023-04-25T07:50:10;12.55;;;6.68;;
1106;SDS011;540;49.448;8.612;2023-04-25T07:52:38;11.05;;;5.82;;
1106;SDS011;540;49.448;8.612;2023-04-25T07:55:06;10.93;;;5.20;;
1106;SDS011;540;49.448;8.612;2023-04-25T07:57:34;10.02;;;5.28;;
1106;SDS011;540;49.448;8.612;2023-04-25T08:00:05;11.05;;;4.32;;
1106;SDS011;540;49.448;8.612;2023-04-25T08:02:36;9.90;;;5.55;;
1106;SDS011;540;49.448;8.612;2023-04-25T08:05:06;12.45;;;5.38;;
1106;SDS011;540;49.448;8.612;2023-04-25T08:07:39;11.93;;;5.05;;
1106;SDS011;540;49.448;8.612;2023-04-25T08:10:10;11.63;;;6.15;;
1106;SDS011;540;49.448;8.612;2023-04-25T08:12:40;16.60;;;5.32;;
1106;SDS011;540;49.448;8.612;2023-04-25T08:15:11;9.90;;;4.88;;
1106;SDS011;540;49.448;8.612;2023-04-25T08:17:42;13.75;;;4.60;;
1106;SDS011;540;49.448;8.612;2023-04-25T08:20:13;10.15;;;5.05;;
1106;SDS011;540;49.448;8.612;2023-04-25T08:22:42;12.63;;;5.25;;
1106;SDS011;540;49.448;8.612;2023-04-25T08:25:12;11.13;;;4.47;;
1106;SDS011;540;49.448;8.612;2023-04-25T08:27:42;9.13;;;4.75;;
1106;SDS011;540;49.448;8.612;2023-04-25T08:30:14;19.40;;;9.68;;
1106;SDS011;540;49.448;8.612;2023-04-25T08:32:43;13.57;;;6.03;;
1106;SDS011;540;49.448;8.612;2023-04-25T08:35:13;8.88;;;4.57;;
1106;SDS011;540;49.448;8.612;2023-04-25T08:37:44;7.55;;;4.30;;
1106;SDS011;540;49.448;8.612;2023-04-25T08:40:14;9.60;;;4.00;;
1106;SDS011;540;49.448;8.612;2023-04-25T08:42:44;10.93;;;4.55;;
1106;SDS011;540;49.448;8.612;2023-04-25T08:45:17;11.73;;;3.92;;
1106;SDS011;540;49.448;8.612;2023-04-25T08:47:47;8.00;;;3.25;;
1106;SDS011;540;49.448;8.612;2023-04-25T08:50:20;7.35;;;3.80;;
1106;SDS011;540;49.448;8.612;2023-04-25T08:52:53;8.15;;;3.90;;
1106;SDS011;540;49.448;8.612;2023-04-25T08:55:25;9.25;;;4.72;;
1106;SDS011;540;49.448;8.612;2023-04-25T08:57:56;10.27;;;4.32;;
1106;SDS011;540;49.448;8.612;2023-04-25T09:00:28;6.55;;;3.28;;
1106;SDS011;540;49.448;8.612;2023-04-25T09:02:57;7.10;;;3.38;;
1106;SDS011;540;49.448;8.612;2023-04-25T09:05:26;11.10;;;4.50;;
1106;SDS011;540;49.448;8.612;2023-04-25T09:07:55;8.63;;;3.97;;
1106;SDS011;540;49.448;8.612;2023-04-25T09:10:24;9.60;;;3.95;;
1106;SDS011;540;49.448;8.612;2023-04-25T09:13:01;8.77;;;3.78;;
1106;SDS011;540;49.448;8.612;2023-04-25T09:15:32;11.88;;;4.20;;
1106;SDS011;540;49.448;8.612;2023-04-25T09:18:00;9.32;;;3.53;;
1106;SDS011;540;49.448;8.612;2023-04-25T09:20:28;7.43;;;3.15;;
1106;SDS011;540;49.448;8.612;2023-04-25T09:23:03;7.35;;;3.05;;
1106;SDS011;540;49.448;8.612;2023-04-25T09:25:33;8.60;;;3.17;;
1106;SDS011;540;49.448;8.612;2023-04-25T09:28:05;7.95;;;3.17;;
1106;SDS011;540;49.448;8.612;2023-04-25T09:30:35;7.28;;;3.60;;
1106;SDS011;540;49.448;8.612;2023-04-25T09:33:04;6.82;;;3.70;;
1106;SDS011;540;49.448;8.612;2023-04-25T09:35:36;10.88;;;3.50;;
1106;SDS011;540;49.448;8.612;2023-04-25T09:38:08;10.52;;;3.88;;
1106;SDS011;540;49.448;8.612;2023-04-25T09:40:40;9.00;;;3.05;;
1106;SDS011;540;49.448;8.612;2023-04-25T09:43:18;8.18;;;3.47;;
1106;SDS011;540;49.448;8.612;2023-04-25T09:45:49;7.82;;;4.45;;
1106;SDS011;540;49.448;8.612;2023-04-25T09:48:18;10.45;;;3.58;;
1106;SDS011;540;49.448;8.612;2023-04-25T09:50:51;8.73;;;3.47;;
1106;SDS011;540;49.448;8.612;2023-04-25T09:53:32;6.82;;;3.28;;
1106;SDS011;540;49.448;8.612;2023-04-25T09:56:00;4.70;;;3.08;;
1106;SDS011;540;49.448;8.612;2023-04-25T09:58:31;6.93;;;3.70;;
1106;SDS011;540;49.448;8.612;2023-04-25T10:01:01;5.88;;;3.17;;
1106;SDS011;540;49.448;8.612;2023-04-25T10:03:31;9.48;;;3.60;;
1106;SDS011;540;49.448;8.612;2023-04-25T10:06:02;6.55;;;3.25;;
1106;SDS011;540;49.448;8.612;2023-04-25T10:08:31;9.15;;;3.78;;
1106;SDS011;540;49.448;8.612;2023-04-25T10:11:00;6.15;;;3.15;;
1106;SDS011;540;49.448;8.612;2023-04-25T10:13:29;7.28;;;4.25;;
1106;SDS011;540;49.448;8.612;2023-04-25T10:15:58;8.05;;;3.03;;
1106;SDS011;540;49.448;8.612;2023-04-25T10:18:28;4.85;;;2.95;;
1106;SDS011;540;49.448;8.612;2023-04-25T10:20:58;6.95;;;3.50;;
1106;SDS011;540;49.448;8.612;2023-04-25T10:23:27;9.73;;;3.15;;
1106;SDS011;540;49.448;8.612;2023-04-25T10:25:56;5.38;;;2.80;;
1106;SDS011;540;49.448;8.612;2023-04-25T10:28:26;8.98;;;3.08;;
1106;SDS011;540;49.448;8.612;2023-04-25T10:30:57;7.35;;;3.22;;
1106;SDS011;540;49.448;8.612;2023-04-25T10:33:30;9.95;;;4.78;;
1106;SDS011;540;49.448;8.612;2023-04-25T10:36:08;6.90;;;3.10;;
1106;SDS011;540;49.448;8.612;2023-04-25T10:38:36;9.73;;;3.22;;
1106;SDS011;540;49.448;8.612;2023-04-25T10:41:05;7.95;;;2.90;;
1106;SDS011;540;49.448;8.612;2023-04-25T10:43:35;11.23;;;3.40;;
1106;SDS011;540;49.448;8.612;2023-04-25T10:46:18;10.50;;;4.15;;
1106;SDS011;540;49.448;8.612;2023-04-25T10:48:48;8.35;;;3.90;;
1106;SDS011;540;49.448;8.612;2023-04-25T10:51:18;8.65;;;3.95;;
1106;SDS011;540;49.448;8.612;2023-04-25T10:53:56;5.68;;;3.38;;
1106;SDS011;540;49.448;8.612;2023-04-25T10:56:25;6.65;;;3.45;;
1106;SDS011;540;49.448;8.612;2023-04-25T10:59:07;10.05;;;3.72;;
1106;SDS011;540;49.448;8.612;2023-04-25T11:01:37;10.75;;;3.67;;
1106;SDS011;540;49.448;8.612;2023-04-25T11:04:08;10.73;;;3.80;;
1106;SDS011;540;49.448;8.612;2023-04-25T11:06:51;7.55;;;4.20;;
1106;SDS011;540;49.448;8.612;2023-04-25T11:09:32;9.27;;;3.60;;
1106;SDS011;540;49.448;8.612;2023-04-25T11:12:01;9.23;;;4.22;;
1106;SDS011;540;49.448;8.612;2023-04-25T11:14:28;7.60;;;4.40;;
1106;SDS011;540;49.448;8.612;2023-04-25T11:16:57;8.10;;;3.80;;
1106;SDS011;540;49.448;8.612;2023-04-25T11:19:28;8.88;;;3.50;;
1106;SDS011;540;49.448;8.612;2023-04-25T11:21:56;9.77;;;3.67;;
1106;SDS011;540;49.448;8.612;2023-04-25T11:24:25;11.55;;;3.08;;
1106;SDS011;540;49.448;8.612;2023-04-25T11:26:54;4.57;;;2.30;;
1106;SDS011;540;49.448;8.612;2023-04-25T11:29:22;6.43;;;2.60;;
1106;SDS011;540;49.448;8.612;2023-04-25T11:31:50;4.40;;;2.75;;
1106;SDS011;540;49.448;8.612;2023-04-25T11:34:18;6.95;;;2.83;;
1106;SDS011;540;49.448;8.612;2023-04-25T11:36:47;5.85;;;2.75;;
1106;SDS011;540;49.448;8.612;2023-04-25T11:39:15;4.88;;;2.40;;
1106;SDS011;540;49.448;8.612;2023-04-25T11:41:43;10.05;;;2.78;;
1106;SDS011;540;49.448;8.612;2023-04-25T11:44:11;5.40;;;2.78;;
1106;SDS011;540;49.448;8.612;2023-04-25T11:46:39;3.15;;;1.92;;
1106;SDS011;540;49.448;8.612;2023-04-25T11:49:07;4.25;;;2.05;;
1106;SDS011;540;49.448;8.612;2023-04-25T11:51:37;3.38;;;2.05;;
1106;SDS011;540;49.448;8.612;2023-04-25T11:54:08;5.30;;;2.13;;
1106;SDS011;540;49.448;8.612;2023-04-25T11:56:35;6.03;;;2.95;;
1106;SDS011;540;49.448;8.612;2023-04-25T11:59:03;5.45;;;2.28;;
1106;SDS011;540;49.448;8.612;2023-04-25T12:01:33;3.53;;;2.25;;
1106;SDS011;540;49.448;8.612;2023-04-25T12:04:11;7.40;;;2.35;;
1106;SDS011;540;49.448;8.612;2023-04-25T12:06:41;5.25;;;2.50;;
1106;SDS011;540;49.448;8.612;2023-04-25T12:09:11;6.50;;;2.28;;
1106;SDS011;540;49.448;8.612;2023-04-25T12:11:40;9.98;;;2.63;;
1106;SDS011;540;49.448;8.612;2023-04-25T12:14:09;6.88;;;2.20;;
1106;SDS011;540;49.448;8.612;2023-04-25T12:16:41;5.43;;;2.58;;
1106;SDS011;540;49.448;8.612;2023-04-25T12:19:09;6.22;;;2.97;;
1106;SDS011;540;49.448;8.612;2023-04-25T12:21:41;6.93;;;2.70;;
1106;SDS011;540;49.448;8.612;2023-04-25T12:24:25;6.25;;;2.60;;
1106;SDS011;540;49.448;8.612;2023-04-25T12:26:58;6.40;;;2.90;;
1106;SDS011;540;49.448;8.612;2023-04-25T12:29:27;5.60;;;2.50;;
1106;SDS011;540;49.448;8.612;2023-04-25T12:32:03;4.75;;;2.33;;
1106;SDS011;540;49.448;8.612;2023-04-25T12:34:32;5.85;;;2.65;;
1106;SDS011;540;49.448;8.612;2023-04-25T12:37:01;7.03;;;3.22;;
1106;SDS011;540;49.448;8.612;2023-04-25T12:39:30;4.25;;;2.75;;
1106;SDS011;540;49.448;8.612;2023-04-25T12:41:58;4.68;;;2.85;;
1106;SDS011;540;49.448;8.612;2023-04-25T12:44:27;4.78;;;3.13;;
1106;SDS011;540;49.448;8.612;2023-04-25T12:46:54;6.80;;;3.22;;
1106;SDS011;540;49.448;8.612;2023-04-25T12:49:22;4.80;;;2.80;;
1106;SDS011;540;49.448;8.612;2023-04-25T12:51:51;9.27;;;3.58;;
1106;SDS011;540;49.448;8.612;2023-04-25T12:54:19;6.63;;;3.67;;
1106;SDS011;540;49.448;8.612;2023-04-25T12:56:48;5.70;;;3.17;;
1106;SDS011;540;49.448;8.612;2023-04-25T12:59:16;5.22;;;3.20;;
1106;SDS011;540;49.448;8.612;2023-04-25T13:01:44;8.02;;;5.30;;
1106;SDS011;540;49.448;8.612;2023-04-25T13:04:12;6.22;;;3.20;;
1106;SDS011;540;49.448;8.612;2023-04-25T13:06:40;7.65;;;3.83;;
1106;SDS011;540;49.448;8.612;2023-04-25T13:09:08;6.60;;;3.45;;
1106;SDS011;540;49.448;8.612;2023-04-25T13:11:38;7.30;;;3.30;;
1106;SDS011;540;49.448;8.612;2023-04-25T13:14:07;7.93;;;3.45;;
1106;SDS011;540;49.448;8.612;2023-04-25T13:16:35;8.18;;;3.60;;
1106;SDS011;540;49.448;8.612;2023-04-25T13:19:03;14.05;;;4.30;;
1106;SDS011;540;49.448;8.612;2023-04-25T13:21:33;9.48;;;3.78;;
1106;SDS011;540;49.448;8.612;2023-04-25T13:24:01;5.82;;;3.47;;
1106;SDS011;540;49.448;8.612;2023-04-25T13:26:29;9.10;;;3.63;;
1106;SDS011;540;49.448;8.612;2023-04-25T13:28:57;4.38;;;3.00;;
1106;SDS011;540;49.448;8.612;2023-04-25T13:31:27;9.13;;;2.60;;
1106;SDS011;540;49.448;8.612;2023-04-25T13:33:56;6.85;;;2.67;;
1106;SDS011;540;49.448;8.612;2023-04-25T13:36:24;4.50;;;2.88;;
1106;SDS011;540;49.448;8.612;2023-04-25T13:38:52;7.18;;;3.58;;
1106;SDS011;540;49.448;8.612;2023-04-25T13:41:19;4.63;;;3.33;;
1106;SDS011;540;49.448;8.612;2023-04-25T13:43:47;4.35;;;3.00;;
1106;SDS011;540;49.448;8.612;2023-04-25T13:46:15;10.05;;;3.30;;
1106;SDS011;540;49.448;8.612;2023-04-25T13:48:48;8.35;;;3.47;;
1106;SDS011;540;49.448;8.612;2023-04-25T13:51:19;5.75;;;3.28;;
1106;SDS011;540;49.448;8.612;2023-04-25T13:53:47;7.30;;;3.20;;
1106;SDS011;540;49.448;8.612;2023-04-25T13:56:15;7.15;;;3.40;;
1106;SDS011;540;49.448;8.612;2023-04-25T13:58:43;7.20;;;3.55;;
1106;SDS011;540;49.448;8.612;2023-04-25T14:01:10;5.93;;;3.40;;
1106;SDS011;540;49.448;8.612;2023-04-25T14:03:38;6.45;;;3.80;;
1106;SDS011;540;49.448;8.612;2023-04-25T14:06:09;8.02;;;3.65;;
1106;SDS011;540;49.448;8.612;2023-04-25T14:08:37;8.73;;;3.22;;
1106;SDS011;540;49.448;8.612;2023-04-25T14:11:04;9.43;;;3.58;;
1106;SDS011;540;49.448;8.612;2023-04-25T14:13:32;6.30;;;3.53;;
1106;SDS011;540;49.448;8.612;2023-04-25T14:16:00;7.88;;;3.50;;
1106;SDS011;540;49.448;8.612;2023-04-25T14:18:28;6.15;;;3.10;;
1106;SDS011;540;49.448;8.612;2023-04-25T14:20:56;8.52;;;3.72;;
1106;SDS011;540;49.448;8.612;2023-04-25T14:23:25;10.45;;;3.95;;
1106;SDS011;540;49.448;8.612;2023-04-25T14:25:53;7.13;;;3.42;;
1106;SDS011;540;49.448;8.612;2023-04-25T14:28:21;5.85;;;3.50;;
1106;SDS011;540;49.448;8.612;2023-04-25T14:30:48;5.95;;;3.45;;
1106;SDS011;540;49.448;8.612;2023-04-25T14:33:17;7.35;;;3.33;;
1106;SDS011;540;49.448;8.612;2023-04-25T14:35:44;5.28;;;2.58;;
1106;SDS011;540;49.448;8.612;2023-04-25T14:38:13;4.30;;;2.90;;
1106;SDS011;540;49.448;8.612;2023-04-25T14:40:42;4.85;;;2.60;;
1106;SDS011;540;49.448;8.612;2023-04-25T14:43:11;7.18;;;2.72;;
1106;SDS011;540;49.448;8.612;2023-04-25T14:45:41;5.38;;;2.63;;
1106;SDS011;540;49.448;8.612;2023-04-25T14:48:09;6.55;;;3.13;;
1106;SDS011;540;49.448;8.612;2023-04-25T14:50:37;6.70;;;3.50;;
1106;SDS011;540;49.448;8.612;2023-04-25T14:53:05;8.00;;;3.30;;
1106;SDS011;540;49.448;8.612;2023-04-25T14:55:33;6.60;;;3.08;;
1106;SDS011;540;49.448;8.612;2023-04-25T14:58:02;10.13;;;3.60;;
1106;SDS011;540;49.448;8.612;2023-04-25T15:00:31;5.20;;;3.53;;
1106;SDS011;540;49.448;8.612;2023-04-25T15:02:59;5.97;;;3.47;;
1106;SDS011;540;49.448;8.612;2023-04-25T15:05:27;4.55;;;2.90;;
1106;SDS011;540;49.448;8.612;2023-04-25T15:07:55;8.68;;;2.80;;
1106;SDS011;540;49.448;8.612;2023-04-25T15:10:22;9.35;;;2.95;;
1106;SDS011;540;49.448;8.612;2023-04-25T15:12:50;6.03;;;2.90;;
1106;SDS011;540;49.448;8.612;2023-04-25T15:15:20;7.78;;;3.25;;
1106;SDS011;540;49.448;8.612;2023-04-25T15:17:52;12.32;;;3.97;;
1106;SDS011;540;49.448;8.612;2023-04-25T15:20:24;5.38;;;3.35;;
1106;SDS011;540;49.448;8.612;2023-04-25T15:22:52;6.18;;;2.63;;
1106;SDS011;540;49.448;8.612;2023-04-25T15:25:20;6.68;;;2.60;;
1106;SDS011;540;49.448;8.612;2023-04-25T15:27:48;6.45;;;2.90;;
1106;SDS011;540;49.448;8.612;2023-04-25T15:30:17;7.65;;;2.65;;
1106;SDS011;540;49.448;8.612;2023-04-25T15:32:48;6.55;;;2.53;;
1106;SDS011;540;49.448;8.612;2023-04-25T15:35:16;7.35;;;2.42;;